Time;durP1;ratioP1;P1;durP2;ratioP2;P2;SDS_P1;SDS_P2;PMS_P1;PMS_P2;Temp;Humidity;BMP_temperature;BMP_pressure;BME280_temperature;BME280_humidity;BME280_pressure;Samples;Min_cycle;Max_cycle;Signal;HPM_P1;HPM_P2
2021/03/25 00:01:32;;;;;;;38.85;26.83;;;1.70;99.90;;;;;;5095101;28;20183;-68
2021/03/25 00:03:57;;;;;;;39.65;27.58;;;1.80;99.90;;;;;;5094811;28;20189;-66
2021/03/25 00:06:25;;;;;;;39.33;26.97;;;1.70;99.90;;;;;;5094958;28;20695;-68
2021/03/25 00:08:50;;;;;;;41.40;27.13;;;1.60;99.90;;;;;;5094336;28;20454;-67
2021/03/25 00:11:16;;;;;;;44.10;31.77;;;1.70;99.90;;;;;;5094859;28;20184;-68
2021/03/25 00:13:42;;;;;;;47.23;33.70;;;1.80;99.90;;;;;;5094559;28;20421;-68
2021/03/25 00:16:08;;;;;;;45.92;30.73;;;1.80;99.90;;;;;;5094758;28;20539;-68
2021/03/25 00:18:35;;;;;;;45.95;30.85;;;1.80;99.90;;;;;;5094388;28;20267;-68
2021/03/25 00:21:02;;;;;;;45.13;30.55;;;1.90;99.90;;;;;;5093213;28;20180;-69
2021/03/25 00:23:27;;;;;;;45.08;30.55;;;1.80;99.90;;;;;;5094345;28;20196;-69
2021/03/25 00:25:53;;;;;;;46.83;31.30;;;1.80;99.90;;;;;;5093104;28;20185;-66
2021/03/25 00:28:19;;;;;;;48.10;30.40;;;1.80;99.90;;;;;;5094271;28;20223;-67
2021/03/25 00:30:46;;;;;;;42.17;29.73;;;1.70;99.90;;;;;;5094373;28;20211;-68
2021/03/25 00:33:16;;;;;;;45.28;31.38;;;1.80;99.90;;;;;;5094296;28;20192;-68
2021/03/25 00:35:42;;;;;;;45.60;31.98;;;1.80;99.90;;;;;;5094489;28;20188;-68
2021/03/25 00:38:09;;;;;;;47.85;32.05;;;1.70;99.90;;;;;;5094235;28;20201;-68
2021/03/25 00:40:34;;;;;;;42.88;29.88;;;1.70;99.90;;;;;;5094186;28;20678;-69
2021/03/25 00:43:01;;;;;;;47.63;31.67;;;1.70;99.90;;;;;;5092866;28;20282;-68
2021/03/25 00:45:29;;;;;;;48.38;33.92;;;1.80;99.90;;;;;;5093976;28;20236;-66
2021/03/25 00:47:54;;;;;;;51.50;34.08;;;1.60;99.90;;;;;;5093950;28;20208;-67
2021/03/25 00:50:30;;;;;;;52.57;32.60;;;1.70;99.90;;;;;;5092817;28;20172;-66
2021/03/25 00:52:56;;;;;;;54.53;34.63;;;1.80;99.90;;;;;;5094129;28;20184;-67
2021/03/25 00:55:23;;;;;;;48.95;32.65;;;1.70;99.90;;;;;;5092672;28;20519;-68
2021/03/25 00:57:49;;;;;;;54.15;34.72;;;1.60;99.90;;;;;;5092548;28;20188;-67
2021/03/25 01:00:22;;;;;;;51.37;32.83;;;1.60;99.90;;;;;;5093889;28;20196;-66
2021/03/25 01:02:48;;;;;;;50.33;32.63;;;1.40;99.90;;;;;;5093787;28;20262;-70
2021/03/25 01:05:14;;;;;;;50.07;33.07;;;1.40;99.90;;;;;;5092554;28;20180;-66
2021/03/25 01:07:40;;;;;;;54.08;33.10;;;1.40;99.90;;;;;;5093742;28;20204;-67
2021/03/25 01:10:20;;;;;;;54.20;35.83;;;1.30;99.90;;;;;;5092462;28;20176;-69
2021/03/25 01:12:46;;;;;;;55.58;35.75;;;1.30;99.90;;;;;;5092544;28;20545;-66
2021/03/25 01:15:13;;;;;;;54.00;36.17;;;1.30;99.90;;;;;;5093703;28;20568;-69
2021/03/25 01:17:42;;;;;;;60.10;36.15;;;1.10;99.90;;;;;;5093576;28;20532;-69
2021/03/25 01:20:14;;;;;;;59.53;37.53;;;1.20;99.90;;;;;;5095479;28;20218;-69
2021/03/25 01:22:39;;;;;;;61.20;37.10;;;1.20;99.90;;;;;;5097757;28;20168;-67
2021/03/25 01:25:05;;;;;;;57.77;36.53;;;1.20;99.90;;;;;;5097755;28;20534;-67
2021/03/25 01:27:31;;;;;;;59.85;36.25;;;1.00;99.90;;;;;;5097615;28;20208;-68
2021/03/25 01:29:59;;;;;;;58.17;38.47;;;1.20;99.90;;;;;;5097739;28;20691;-68
2021/03/25 01:32:24;;;;;;;62.17;38.75;;;1.20;99.90;;;;;;5098177;28;20183;-67
2021/03/25 01:34:50;;;;;;;65.77;40.53;;;1.20;99.90;;;;;;5097567;28;20555;-68
2021/03/25 01:37:15;;;;;;;63.47;38.57;;;1.20;99.90;;;;;;5096571;28;20275;-68
2021/03/25 01:39:41;;;;;;;65.93;40.50;;;1.10;99.90;;;;;;5097486;28;20657;-66
2021/03/25 01:42:28;;;;;;;62.17;38.00;;;1.20;99.90;;;;;;5098151;28;20215;-67
2021/03/25 01:44:54;;;;;;;67.55;41.58;;;1.10;99.90;;;;;;5097309;28;20227;-68
2021/03/25 01:47:20;;;;;;;60.20;38.60;;;1.20;99.90;;;;;;5097822;28;20212;-67
2021/03/25 01:49:47;;;;;;;60.83;38.60;;;1.20;99.90;;;;;;5097245;28;20189;-68
2021/03/25 01:52:42;;;;;;;59.10;36.53;;;1.00;99.90;;;;;;5096285;28;20184;-66
2021/03/25 01:55:17;;;;;;;70.07;39.78;;;1.00;99.90;;;;;;5095948;28;20260;-67
2021/03/25 01:58:02;;;;;;;63.65;37.90;;;0.80;99.90;;;;;;5097181;28;20164;-68
2021/03/25 02:00:38;;;;;;;67.97;38.72;;;0.60;99.90;;;;;;5076028;28;20662;-66
2021/03/25 02:03:29;;;;;;;66.05;36.45;;;0.70;99.90;;;;;;5097114;28;20202;-66
2021/03/25 02:06:29;;;;;;;61.05;35.58;;;0.60;99.90;;;;;;5097048;28;20227;-69
2021/03/25 02:09:13;;;;;;;55.60;34.92;;;0.70;99.90;;;;;;5097111;28;20666;-67
2021/03/25 02:11:59;;;;;;;56.38;34.45;;;0.80;99.90;;;;;;5097379;28;20187;-68
2021/03/25 02:14:51;;;;;;;54.60;33.53;;;0.80;99.90;;;;;;5095620;28;20571;-68
2021/03/25 02:17:41;;;;;;;54.63;34.63;;;0.80;99.90;;;;;;5097600;28;20252;-66
2021/03/25 02:20:27;;;;;;;54.30;33.95;;;0.70;99.90;;;;;;5096782;28;20168;-67
2021/03/25 02:23:14;;;;;;;52.90;33.63;;;0.70;99.90;;;;;;5096549;28;20201;-66
2021/03/25 02:26:01;;;;;;;55.60;34.72;;;0.70;99.90;;;;;;5096870;28;20251;-66
2021/03/25 02:28:51;;;;;;;61.55;35.05;;;0.70;99.90;;;;;;5096476;28;20212;-67
2021/03/25 02:31:31;;;;;;;60.67;35.70;;;0.70;99.90;;;;;;5095505;28;20177;-68
2021/03/25 02:33:59;;;;;;;98.18;56.88;;;0.70;99.90;;;;;;5096712;28;20227;-66
2021/03/25 02:36:33;;;;;;;101.95;58.60;;;0.70;99.90;;;;;;5096488;28;20183;-68
2021/03/25 02:39:05;;;;;;;79.75;46.95;;;0.70;99.90;;;;;;5096571;28;20226;-66
2021/03/25 02:41:36;;;;;;;89.13;49.60;;;0.70;99.90;;;;;;5095339;28;20189;-66
2021/03/25 02:44:06;;;;;;;74.55;41.67;;;0.70;99.90;;;;;;5094958;28;20200;-66
2021/03/25 02:46:46;;;;;;;67.47;41.85;;;0.60;99.90;;;;;;5096595;28;20569;-66
2021/03/25 02:49:15;;;;;;;81.40;44.08;;;0.70;99.90;;;;;;5096284;28;20717;-68
2021/03/25 02:51:47;;;;;;;79.43;46.63;;;0.70;99.90;;;;;;5096184;28;20173;-68
2021/03/25 02:54:13;;;;;;;88.85;47.17;;;0.60;99.90;;;;;;5096200;28;20551;-67
2021/03/25 02:56:46;;;;;;;90.30;50.70;;;0.70;99.90;;;;;;5096463;28;20181;-66
2021/03/25 02:59:16;;;;;;;112.93;52.78;;;0.70;99.90;;;;;;5094720;28;20228;-66
2021/03/25 03:01:48;;;;;;;110.13;54.45;;;0.60;99.90;;;;;;5096374;28;20222;-68
2021/03/25 03:04:29;;;;;;;109.85;53.22;;;0.70;99.90;;;;;;5096030;28;20195;-66
2021/03/25 03:07:03;;;;;;;96.78;52.17;;;0.60;99.90;;;;;;5094740;28;20295;-68
2021/03/25 03:09:36;;;;;;;98.80;50.65;;;0.60;99.90;;;;;;5095720;28;20270;-69
2021/03/25 03:12:08;;;;;;;101.22;46.45;;;0.60;99.90;;;;;;5096271;28;20267;-68
2021/03/25 03:14:44;;;;;;;105.97;52.88;;;0.60;99.90;;;;;;5095614;28;20280;-66
2021/03/25 03:17:22;;;;;;;103.65;50.35;;;0.60;99.90;;;;;;5096272;28;20200;-69
2021/03/25 03:20:13;;;;;;;80.20;45.67;;;0.50;99.90;;;;;;5094537;28;20269;-67
2021/03/25 03:22:39;;;;;;;96.65;51.05;;;0.50;99.90;;;;;;5094173;28;20184;-67
2021/03/25 03:25:09;;;;;;;102.70;47.03;;;0.40;99.90;;;;;;5095544;28;20184;-67
2021/03/25 03:27:44;;;;;;;108.70;52.55;;;0.40;99.90;;;;;;5095363;28;20204;-68
2021/03/25 03:30:16;;;;;;;120.47;55.15;;;0.30;99.90;;;;;;5095542;28;20618;-66
2021/03/25 03:32:52;;;;;;;132.70;56.15;;;0.30;99.90;;;;;;5095310;28;20251;-68
2021/03/25 03:35:38;;;;;;;116.28;56.55;;;0.20;99.90;;;;;;5095333;28;20183;-69
2021/03/25 03:38:14;;;;;;;126.78;58.40;;;0.30;99.90;;;;;;5095235;28;20192;-67
2021/03/25 03:40:47;;;;;;;134.60;62.78;;;0.10;99.90;;;;;;5095203;28;20233;-68
2021/03/25 03:43:14;;;;;;;130.45;58.25;;;0.20;99.90;;;;;;5094814;28;20203;-67
2021/03/25 03:46:15;;;;;;;142.52;62.88;;;0.20;99.90;;;;;;5093720;28;20243;-67
2021/03/25 03:48:50;;;;;;;158.43;72.18;;;0.10;99.90;;;;;;5072771;28;20243;-66
2021/03/25 03:51:32;;;;;;;192.85;76.10;;;0.00;99.90;;;;;;5095429;28;20630;-69
2021/03/25 03:54:01;;;;;;;163.10;68.90;;;0.10;99.90;;;;;;5095021;28;20205;-66
2021/03/25 03:56:40;;;;;;;180.10;75.93;;;0.20;99.90;;;;;;5093607;28;20571;-69
2021/03/25 03:59:14;;;;;;;188.77;71.75;;;0.10;99.90;;;;;;5093636;28;20227;-66
2021/03/25 04:01:45;;;;;;;160.88;72.82;;;0.20;99.90;;;;;;5093700;28;20188;-68
2021/03/25 04:04:25;;;;;;;149.50;63.38;;;0.10;99.90;;;;;;5094788;28;20550;-68
2021/03/25 04:06:57;;;;;;;133.70;60.70;;;0.20;99.90;;;;;;5095046;28;20219;-67
2021/03/25 04:09:38;;;;;;;104.47;53.25;;;0.20;99.90;;;;;;5093440;28;20196;-66
2021/03/25 04:12:11;;;;;;;109.70;53.15;;;0.30;99.90;;;;;;5094820;28;20191;-67
2021/03/25 04:14:51;;;;;;;103.55;49.85;;;0.40;99.90;;;;;;5094591;28;20193;-69
2021/03/25 04:17:28;;;;;;;115.80;56.28;;;0.40;99.90;;;;;;5095237;28;20629;-67
2021/03/25 04:19:57;;;;;;;125.13;63.50;;;0.40;99.90;;;;;;5093239;28;20166;-69
2021/03/25 04:22:27;;;;;;;102.20;53.65;;;0.30;99.90;;;;;;5093476;28;20276;-68
2021/03/25 04:25:10;;;;;;;116.60;58.90;;;0.30;99.90;;;;;;5094389;28;20168;-69
2021/03/25 04:27:44;;;;;;;107.05;55.17;;;0.30;99.90;;;;;;5094326;28;20215;-66
2021/03/25 04:30:18;;;;;;;92.00;50.10;;;0.20;99.90;;;;;;5094387;28;20568;-66
2021/03/25 04:32:44;;;;;;;87.75;47.63;;;0.20;99.90;;;;;;5094274;28;20156;-67
2021/03/25 04:35:11;;;;;;;95.38;49.65;;;0.20;99.90;;;;;;5094327;28;20179;-69
2021/03/25 04:37:37;;;;;;;110.45;50.05;;;0.10;99.90;;;;;;5094204;28;20173;-67
2021/03/25 04:40:13;;;;;;;122.47;56.40;;;0.10;99.90;;;;;;5094262;28;20621;-67
2021/03/25 04:42:41;;;;;;;133.10;60.17;;;0.30;99.90;;;;;;5094197;28;20844;-67
2021/03/25 04:45:31;;;;;;;140.48;69.20;;;0.40;99.90;;;;;;5093850;28;20220;-68
2021/03/25 04:47:59;;;;;;;228.75;107.63;;;0.50;99.90;;;;;;5093793;28;20239;-66
2021/03/25 04:50:31;;;;;;;236.38;109.70;;;0.50;99.90;;;;;;5094013;28;20176;-67
2021/03/25 04:53:06;;;;;;;267.13;121.28;;;0.60;99.90;;;;;;5094045;28;20261;-68
2021/03/25 04:55:35;;;;;;;231.45;107.03;;;0.50;99.90;;;;;;5091933;28;20651;-66
2021/03/25 04:58:06;;;;;;;249.35;105.95;;;0.50;99.90;;;;;;5093873;28;20196;-68
2021/03/25 05:00:40;;;;;;;308.20;126.38;;;0.60;99.90;;;;;;5094071;28;20169;-69
2021/03/25 05:03:24;;;;;;;348.33;136.50;;;0.60;99.90;;;;;;5093818;28;20194;-68
2021/03/25 05:05:54;;;;;;;291.95;114.20;;;0.70;99.90;;;;;;5094005;28;20192;-69
2021/03/25 05:08:22;;;;;;;241.75;97.22;;;0.70;99.90;;;;;;5093802;28;20227;-68
2021/03/25 05:11:00;;;;;;;199.45;91.53;;;0.70;99.90;;;;;;5093985;28;20629;-68
2021/03/25 05:13:29;;;;;;;223.55;91.25;;;0.70;99.90;;;;;;5092502;28;20200;-68
2021/03/25 05:16:07;;;;;;;175.05;78.43;;;0.40;99.90;;;;;;5092509;28;20549;-69
2021/03/25 05:18:36;;;;;;;184.95;77.70;;;0.30;99.90;;;;;;5093723;28;20540;-68
2021/03/25 05:21:08;;;;;;;171.50;68.68;;;0.40;99.90;;;;;;5093507;28;20633;-67
2021/03/25 05:23:45;;;;;;;131.07;58.70;;;0.40;99.90;;;;;;5092363;28;20275;-67
2021/03/25 05:26:22;;;;;;;138.45;60.33;;;0.30;99.90;;;;;;5093509;28;20184;-68
2021/03/25 05:29:00;;;;;;;128.02;55.28;;;0.50;99.90;;;;;;5093485;28;20219;-68
2021/03/25 05:31:28;;;;;;;110.97;49.78;;;2.00;99.90;;;;;;5084074;28;20219;-68
2021/03/25 05:33:57;;;;;;;116.40;49.72;;;3.00;99.90;;;;;;5092912;28;20567;-68
2021/03/25 05:36:23;;;;;;;95.82;45.20;;;3.60;99.90;;;;;;5093408;28;20277;-66
2021/03/25 05:38:48;;;;;;;95.03;45.08;;;4.00;99.90;;;;;;5093400;28;20658;-69
2021/03/25 05:41:41;;;;;;;91.97;45.90;;;4.30;99.90;;;;;;5093731;28;20219;-66
2021/03/25 05:44:29;;;;;;;86.25;41.22;;;4.60;99.90;;;;;;5093373;28;20296;-67
2021/03/25 05:47:01;;;;;;;81.00;40.47;;;4.80;99.90;;;;;;5093669;28;20220;-66
2021/03/25 05:50:01;;;;;;;85.60;42.22;;;5.10;99.90;;;;;;5093353;28;20193;-66
2021/03/25 05:52:43;;;;;;;84.05;42.72;;;5.30;99.90;;;;;;5093882;28;20652;-69
2021/03/25 05:55:47;;;;;;;78.00;44.15;;;5.30;99.90;;;;;;5091705;28;20176;-69
2021/03/25 05:58:37;;;;;;;92.82;45.28;;;5.50;99.90;;;;;;5091231;28;20638;-67
2021/03/25 06:01:26;;;;;;;97.50;50.45;;;5.60;99.90;;;;;;5093517;28;20161;-68
2021/03/25 06:04:01;;;;;;;61.17;39.75;;;3.30;99.90;;;;;;5093136;28;20224;-69
2021/03/25 06:07:02;;;;;;;58.85;37.15;;;2.40;99.90;;;;;;5095608;28;20168;-67
2021/03/25 06:09:41;;;;;;;59.08;37.90;;;2.30;99.90;;;;;;5096895;28;20579;-68
2021/03/25 06:12:13;;;;;;;56.05;34.08;;;2.30;99.90;;;;;;5097340;28;20525;-68
2021/03/25 06:14:44;;;;;;;64.35;38.80;;;2.30;99.90;;;;;;5095297;28;20230;-67
2021/03/25 06:17:31;;;;;;;51.05;32.58;;;2.30;99.90;;;;;;5095053;28;20184;-69
2021/03/25 06:20:12;;;;;;;54.78;34.42;;;2.30;99.90;;;;;;5095967;28;20192;-67
2021/03/25 06:23:21;;;;;;;59.22;34.75;;;2.70;99.90;;;;;;5095468;28;20204;-66
2021/03/25 06:25:53;;;;;;;50.72;31.13;;;2.90;99.90;;;;;;5095382;28;20192;-69
2021/03/25 06:28:42;;;;;;;55.58;35.13;;;3.20;99.90;;;;;;5095265;28;20653;-67
2021/03/25 06:31:33;;;;;;;232.70;87.90;;;3.40;99.90;;;;;;5096841;28;20169;-68
2021/03/25 06:34:31;;;;;;;71.60;38.13;;;3.40;99.90;;;;;;5096640;28;20283;-67
2021/03/25 06:37:12;;;;;;;62.85;36.08;;;3.30;99.90;;;;;;5079760;28;20585;-66
2021/03/25 06:39:40;;;;;;;78.95;40.15;;;3.20;99.90;;;;;;5095079;28;20247;-67
2021/03/25 06:42:26;;;;;;;62.00;34.85;;;3.20;99.90;;;;;;5096805;28;20168;-67
2021/03/25 06:44:59;;;;;;;59.58;38.03;;;3.30;99.90;;;;;;5095653;28;20196;-66
2021/03/25 06:47:46;;;;;;;50.28;32.63;;;3.40;99.90;;;;;;5096750;28;20244;-68
2021/03/25 06:50:34;;;;;;;105.72;47.92;;;3.50;99.90;;;;;;5095814;28;20161;-67
2021/03/25 06:53:25;;;;;;;54.13;33.75;;;3.70;99.90;;;;;;5095621;28;20689;-66
2021/03/25 06:55:57;;;;;;;75.55;41.05;;;3.80;99.90;;;;;;5090749;28;20271;-66
2021/03/25 06:58:31;;;;;;;68.38;38.75;;;3.90;99.90;;;;;;5096076;28;20211;-68
2021/03/25 07:01:05;;;;;;;71.78;38.53;;;4.10;99.90;;;;;;5094689;28;20178;-67
2021/03/25 07:03:32;;;;;;;59.72;34.47;;;4.30;99.90;;;;;;5095894;28;20201;-68
2021/03/25 07:06:00;;;;;;;53.53;33.30;;;4.40;99.90;;;;;;5095988;28;20183;-67
2021/03/25 07:08:32;;;;;;;60.65;34.08;;;4.50;99.90;;;;;;5095001;28;20224;-68
2021/03/25 07:11:04;;;;;;;66.13;36.65;;;4.60;99.90;;;;;;5095880;28;20180;-69
2021/03/25 07:13:41;;;;;;;57.05;34.30;;;4.80;99.90;;;;;;5095660;28;20669;-67
2021/03/25 07:16:08;;;;;;;55.90;35.22;;;4.90;99.90;;;;;;5094944;28;20589;-68
2021/03/25 07:19:07;;;;;;;54.38;34.50;;;5.10;99.90;;;;;;5094686;28;20204;-69
2021/03/25 07:21:35;;;;;;;51.30;33.13;;;5.10;99.90;;;;;;5095635;28;20216;-67
2021/03/25 07:24:28;;;;;;;45.65;30.88;;;5.40;99.90;;;;;;5094052;28;20568;-68
2021/03/25 07:26:56;;;;;;;47.28;28.67;;;5.30;99.90;;;;;;5090942;28;20295;-67
2021/03/25 07:29:29;;;;;;;43.63;31.70;;;5.60;99.90;;;;;;5095253;28;20283;-65
2021/03/25 07:31:59;;;;;;;42.67;27.67;;;5.90;99.90;;;;;;5092849;28;20188;-67
2021/03/25 07:34:38;;;;;;;37.88;23.48;;;6.20;99.90;;;;;;5086304;28;20673;-67
2021/03/25 07:37:07;;;;;;;31.85;20.67;;;6.50;99.90;;;;;;5092176;28;20180;-66
2021/03/25 07:39:37;;;;;;;23.00;16.73;;;6.60;99.90;;;;;;5092096;28;20196;-66
2021/03/25 07:42:03;;;;;;;27.60;17.67;;;7.00;99.90;;;;;;5093758;28;20180;-68
2021/03/25 07:44:40;;;;;;;21.25;14.90;;;7.30;99.90;;;;;;5093965;28;20193;-68
2021/03/25 07:47:30;;;;;;;23.92;15.93;;;7.60;99.90;;;;;;5094067;28;20700;-70
2021/03/25 07:50:26;;;;;;;21.30;16.40;;;7.80;99.90;;;;;;5094505;28;20244;-69
2021/03/25 07:52:52;;;;;;;26.60;17.50;;;8.30;99.90;;;;;;5094075;28;20572;-66
2021/03/25 07:55:18;;;;;;;22.65;15.00;;;8.50;99.40;;;;;;5093064;28;20169;-66
2021/03/25 07:57:46;;;;;;;25.50;17.00;;;8.50;94.20;;;;;;5093752;28;20199;-68
2021/03/25 08:00:35;;;;;;;15.45;11.82;;;8.70;95.90;;;;;;5093636;28;20187;-66
2021/03/25 08:03:20;;;;;;;15.77;10.30;;;8.70;86.90;;;;;;5092809;28;20200;-68
2021/03/25 08:05:48;;;;;;;18.20;11.32;;;8.90;83.20;;;;;;5087921;28;20279;-67
2021/03/25 08:08:38;;;;;;;16.00;11.90;;;9.00;80.00;;;;;;5092229;28;20701;-69
2021/03/25 08:11:16;;;;;;;14.52;9.95;;;9.30;83.70;;;;;;5086114;28;20181;-67
2021/03/25 08:13:59;;;;;;;12.73;10.00;;;9.40;76.40;;;;;;5093258;28;20257;-66
2021/03/25 08:16:28;;;;;;;12.40;9.80;;;9.30;72.50;;;;;;5094357;28;20180;-66
2021/03/25 08:18:56;;;;;;;13.95;9.32;;;9.40;70.70;;;;;;5092423;28;20193;-68
2021/03/25 08:21:57;;;;;;;15.02;10.75;;;9.80;70.10;;;;;;5092673;28;20173;-66
2021/03/25 08:24:43;;;;;;;13.80;9.10;;;9.70;68.80;;;;;;5056391;28;20260;-68
2021/03/25 08:28:01;;;;;;;9.40;8.35;;;9.70;69.20;;;;;;5087657;28;20222;-66
2021/03/25 08:31:04;;;;;;;8.02;5.82;;;9.90;66.10;;;;;;5076215;28;20585;-68
2021/03/25 08:34:06;;;;;;;7.50;6.13;;;10.50;62.50;;;;;;5091215;28;20211;-70
2021/03/25 08:36:41;;;;;;;6.85;6.15;;;11.20;60.80;;;;;;5091099;28;20187;-67
2021/03/25 08:39:44;;;;;;;8.68;5.47;;;11.50;57.30;;;;;;5090322;28;20254;-67
2021/03/25 08:42:28;;;;;;;5.50;4.97;;;11.90;57.70;;;;;;5091648;28;20603;-70
2021/03/25 08:45:15;;;;;;;7.70;6.83;;;12.40;55.90;;;;;;5091509;28;20471;-67
2021/03/25 08:48:20;;;;;;;6.30;5.03;;;12.90;57.60;;;;;;5090691;28;21056;-68
2021/03/25 08:50:55;;;;;;;9.50;7.00;;;12.70;53.00;;;;;;5092565;28;20436;-69
2021/03/25 08:53:39;;;;;;;10.50;6.90;;;12.90;54.40;;;;;;5079771;28;20522;-67
2021/03/25 08:56:28;;;;;;;7.13;6.33;;;13.80;55.70;;;;;;5077363;28;20541;-68
2021/03/25 08:58:58;;;;;;;6.57;5.97;;;14.30;55.20;;;;;;5076527;28;20782;-67
2021/03/25 09:01:33;;;;;;;7.37;6.33;;;14.50;54.20;;;;;;5083757;28;20483;-69
2021/03/25 09:04:02;;;;;;;6.10;5.30;;;14.40;56.20;;;;;;5069163;28;20456;-69
2021/03/25 09:06:35;;;;;;;7.47;6.67;;;14.10;56.10;;;;;;5077031;28;20425;-68
2021/03/25 09:09:25;;;;;;;8.50;6.57;;;14.20;55.00;;;;;;5089468;28;20460;-67
2021/03/25 09:11:50;;;;;;;7.43;6.70;;;14.30;54.40;;;;;;5091623;28;20474;-67
2021/03/25 09:14:23;;;;;;;8.93;7.30;;;14.00;54.00;;;;;;5090040;28;20457;-68
2021/03/25 09:16:49;;;;;;;7.50;6.80;;;13.90;54.20;;;;;;5087054;28;20287;-70
2021/03/25 09:19:26;;;;;;;8.87;7.43;;;14.20;57.30;;;;;;5092390;28;20483;-67
2021/03/25 09:21:53;;;;;;;6.90;6.17;;;14.80;55.90;;;;;;5092967;28;20463;-68
2021/03/25 09:24:19;;;;;;;7.80;7.03;;;14.60;55.90;;;;;;5084692;28;20453;-69
2021/03/25 09:26:52;;;;;;;6.83;6.23;;;15.00;56.30;;;;;;5074631;28;21025;-68
2021/03/25 09:29:21;;;;;;;6.50;5.90;;;15.30;56.90;;;;;;5081441;28;20624;-69
2021/03/25 09:31:56;;;;;;;7.20;6.47;;;15.00;55.00;;;;;;5092923;28;20406;-69
2021/03/25 09:34:24;;;;;;;8.77;7.30;;;14.20;54.00;;;;;;5089149;28;20860;-67
2021/03/25 09:36:56;;;;;;;11.00;8.33;;;14.60;55.70;;;;;;5094861;28;20420;-68
2021/03/25 09:39:32;;;;;;;7.13;6.43;;;15.20;57.00;;;;;;5110840;28;20833;-67
2021/03/25 09:42:02;;;;;;;7.57;6.87;;;16.10;55.00;;;;;;5096949;28;20433;-70
2021/03/25 09:44:38;;;;;;;10.30;8.23;;;16.30;55.20;;;;;;5098152;28;20449;-70
2021/03/25 09:47:36;;;;;;;9.60;7.60;;;15.70;53.00;;;;;;5101258;28;20482;-69
2021/03/25 09:50:02;;;;;;;8.43;7.53;;;15.50;52.10;;;;;;5088251;28;20804;-67
2021/03/25 09:53:02;;;;;;;9.07;7.27;;;15.30;54.50;;;;;;5087026;28;20433;-68
2021/03/25 09:55:30;;;;;;;7.77;7.00;;;15.20;54.60;;;;;;5091356;28;20195;-70
2021/03/25 09:57:56;;;;;;;13.93;7.77;;;15.10;54.70;;;;;;5089856;28;20573;-67
2021/03/25 10:00:22;;;;;;;10.07;8.20;;;15.20;55.10;;;;;;5079244;28;20497;-68
2021/03/25 10:02:53;;;;;;;9.43;8.40;;;15.10;54.40;;;;;;5094598;28;20210;-69
2021/03/25 10:05:25;;;;;;;7.97;7.17;;;15.20;54.00;;;;;;5093831;28;20188;-69
2021/03/25 10:08:19;;;;;;;9.87;8.70;;;15.00;54.40;;;;;;5095370;28;20482;-71
2021/03/25 10:10:47;;;;;;;10.07;8.30;;;14.20;54.90;;;;;;5075556;28;20470;-69
2021/03/25 10:13:13;;;;;;;8.77;7.87;;;14.20;54.20;;;;;;5076325;28;20435;-67
2021/03/25 10:15:42;;;;;;;9.93;8.17;;;14.80;57.60;;;;;;5088901;28;20435;-68
2021/03/25 10:18:16;;;;;;;10.27;9.10;;;15.20;56.20;;;;;;5076945;28;20424;-68
2021/03/25 10:20:53;;;;;;;11.33;9.33;;;15.10;55.10;;;;;;5091144;28;20489;-69
2021/03/25 10:23:25;;;;;;;11.97;10.10;;;15.10;57.90;;;;;;5091580;28;20815;-69
2021/03/25 10:25:54;;;;;;;8.83;7.57;;;15.40;55.40;;;;;;5092816;28;20437;-67
2021/03/25 10:28:25;;;;;;;10.20;9.10;;;15.00;56.30;;;;;;5094170;28;20476;-69
2021/03/25 10:31:00;;;;;;;12.57;9.80;;;14.50;55.40;;;;;;5093004;28;20516;-68
2021/03/25 10:33:27;;;;;;;11.30;10.13;;;14.30;56.90;;;;;;5094665;28;20785;-67
2021/03/25 10:36:07;;;;;;;13.30;10.07;;;15.00;56.90;;;;;;5084390;28;20433;-68
2021/03/25 10:38:46;;;;;;;13.70;10.40;;;15.00;56.40;;;;;;5077971;28;20559;-68
2021/03/25 10:41:21;;;;;;;10.37;9.20;;;15.30;57.90;;;;;;5096251;28;20515;-69
2021/03/25 10:43:50;;;;;;;11.60;10.50;;;15.30;59.00;;;;;;5094814;28;20455;-68
2021/03/25 10:46:35;;;;;;;11.10;9.67;;;15.10;56.20;;;;;;5092521;28;20449;-68
2021/03/25 10:49:04;;;;;;;9.83;8.83;;;14.60;55.80;;;;;;5093309;28;20837;-69
2021/03/25 10:51:32;;;;;;;13.13;9.47;;;14.60;57.20;;;;;;5094220;28;20432;-70
2021/03/25 10:54:02;;;;;;;12.20;10.00;;;14.80;58.20;;;;;;5091573;28;20833;-67
2021/03/25 10:56:37;;;;;;;10.67;9.60;;;15.20;57.50;;;;;;5095365;28;20431;-69
2021/03/25 10:59:14;;;;;;;10.67;9.30;;;15.10;58.90;;;;;;5078790;28;20456;-68
2021/03/25 11:01:55;;;;;;;10.93;9.80;;;14.90;57.00;;;;;;5095033;28;20432;-67
2021/03/25 11:04:22;;;;;;;11.63;9.30;;;15.00;58.90;;;;;;5093226;28;20471;-70
2021/03/25 11:06:48;;;;;;;11.20;9.43;;;14.40;55.60;;;;;;5085305;28;20437;-70
2021/03/25 11:09:19;;;;;;;12.80;9.63;;;14.70;57.30;;;;;;5088516;28;20457;-69
2021/03/25 11:11:45;;;;;;;11.07;9.93;;;15.40;56.50;;;;;;5082776;28;20462;-67
2021/03/25 11:14:29;;;;;;;13.30;9.60;;;15.10;58.10;;;;;;5089400;28;20453;-67
2021/03/25 11:17:14;;;;;;;12.47;9.93;;;14.30;55.90;;;;;;5080444;28;20429;-70
2021/03/25 11:19:41;;;;;;;11.63;9.80;;;14.40;58.30;;;;;;5088797;28;20441;-68
2021/03/25 11:22:11;;;;;;;10.70;9.67;;;14.20;56.20;;;;;;5092443;28;20413;-70
2021/03/25 11:24:38;;;;;;;10.90;9.10;;;14.70;57.20;;;;;;5088886;28;20467;-69
2021/03/25 11:27:10;;;;;;;9.60;8.43;;;15.40;57.30;;;;;;5090644;28;20495;-67
2021/03/25 11:29:39;;;;;;;10.17;8.47;;;15.50;56.50;;;;;;5078603;28;20460;-67
2021/03/25 11:32:13;;;;;;;10.57;8.70;;;15.50;56.20;;;;;;5090594;28;20425;-67
2021/03/25 11:34:41;;;;;;;9.70;8.70;;;15.40;55.20;;;;;;5103084;28;20506;-67
2021/03/25 11:37:36;;;;;;;9.90;9.00;;;15.20;55.60;;;;;;5114391;28;20427;-69
2021/03/25 11:40:13;;;;;;;10.70;8.53;;;14.80;55.70;;;;;;5104508;28;20425;-67
2021/03/25 11:42:44;;;;;;;9.53;8.53;;;15.50;56.00;;;;;;5094696;28;20944;-67
2021/03/25 11:45:49;;;;;;;10.13;9.13;;;15.70;55.90;;;;;;5094603;28;20465;-70
2021/03/25 11:48:30;;;;;;;8.60;7.70;;;15.90;54.00;;;;;;5074400;28;20517;-68
2021/03/25 11:51:16;;;;;;;9.57;8.67;;;15.60;54.90;;;;;;5084362;28;20421;-69
2021/03/25 11:53:44;;;;;;;9.20;8.30;;;15.90;54.00;;;;;;5075421;28;20445;-67
2021/03/25 11:56:36;;;;;;;10.83;8.70;;;15.60;53.90;;;;;;5072857;28;20474;-69
2021/03/25 11:59:13;;;;;;;11.40;10.20;;;15.50;54.80;;;;;;5070562;28;20454;-67
2021/03/25 12:01:40;;;;;;;11.07;9.10;;;15.40;53.80;;;;;;5070367;28;20422;-68
2021/03/25 12:04:19;;;;;;;10.60;9.27;;;15.30;54.10;;;;;;5070000;28;20773;-69
2021/03/25 12:07:01;;;;;;;12.23;9.40;;;15.30;54.20;;;;;;5090838;28;20432;-68
2021/03/25 12:09:28;;;;;;;10.00;8.90;;;14.90;54.00;;;;;;5089842;28;20558;-67
2021/03/25 12:11:54;;;;;;;10.40;9.40;;;14.90;54.90;;;;;;5091367;28;20417;-68
2021/03/25 12:14:23;;;;;;;10.63;9.57;;;15.00;54.40;;;;;;5095030;28;20441;-68
2021/03/25 12:17:00;;;;;;;12.67;9.90;;;15.00;54.90;;;;;;5101482;28;20435;-68
2021/03/25 12:19:27;;;;;;;11.30;9.37;;;14.90;54.50;;;;;;5102640;28;20442;-67
2021/03/25 12:21:53;;;;;;;9.87;8.87;;;14.90;54.40;;;;;;5100614;28;20429;-67
2021/03/25 12:24:20;;;;;;;10.27;9.27;;;14.70;54.90;;;;;;5104154;28;20823;-67
2021/03/25 12:26:46;;;;;;;11.60;9.77;;;14.80;55.00;;;;;;5100137;28;20764;-70
2021/03/25 12:29:13;;;;;;;11.40;8.57;;;15.20;55.30;;;;;;5094458;28;20441;-68
2021/03/25 12:31:42;;;;;;;9.53;8.53;;;15.70;55.40;;;;;;5100631;28;20474;-69
2021/03/25 12:34:08;;;;;;;10.40;9.10;;;15.70;54.70;;;;;;5100329;28;20425;-70
2021/03/25 12:36:35;;;;;;;14.00;9.60;;;15.30;53.00;;;;;;5103616;28;20416;-68
2021/03/25 12:39:02;;;;;;;11.60;8.87;;;15.00;55.20;;;;;;5102998;28;20528;-69
2021/03/25 12:41:50;;;;;;;13.10;8.70;;;14.90;53.50;;;;;;5105310;28;20416;-68
2021/03/25 12:44:16;;;;;;;10.27;8.83;;;15.10;54.70;;;;;;5079535;28;20433;-69
2021/03/25 12:46:42;;;;;;;9.70;8.67;;;14.90;53.70;;;;;;5092077;28;20464;-67
2021/03/25 12:49:09;;;;;;;10.30;8.43;;;15.50;54.80;;;;;;5090881;28;20697;-68
2021/03/25 12:51:35;;;;;;;10.20;8.80;;;15.90;54.20;;;;;;5090992;28;20421;-69
2021/03/25 12:54:01;;;;;;;14.60;8.67;;;15.70;53.80;;;;;;5091577;28;20561;-66
2021/03/25 12:56:31;;;;;;;9.63;8.53;;;15.90;53.90;;;;;;5091440;28;20508;-68
2021/03/25 12:58:59;;;;;;;10.30;8.50;;;15.90;54.10;;;;;;5090876;28;20432;-67
2021/03/25 13:01:30;;;;;;;10.17;8.57;;;15.80;54.20;;;;;;5091685;28;20868;-69
2021/03/25 13:03:56;;;;;;;10.33;9.10;;;15.60;53.60;;;;;;5093425;28;20425;-68
2021/03/25 13:06:23;;;;;;;10.20;9.00;;;15.50;53.90;;;;;;5093493;28;20937;-67
2021/03/25 13:08:50;;;;;;;11.60;8.87;;;15.70;53.20;;;;;;5088670;28;20499;-67
2021/03/25 13:11:23;;;;;;;11.03;8.90;;;15.80;52.80;;;;;;5086708;28;20995;-67
2021/03/25 13:13:49;;;;;;;10.43;8.70;;;15.30;53.30;;;;;;5088515;28;20443;-67
2021/03/25 13:16:15;;;;;;;10.43;9.43;;;15.30;54.00;;;;;;5090656;28;20446;-69